createdAt,value
2019-03-30T00:01:25.605Z,96142.86
2019-03-30T00:03:55.498Z,96137.78
2019-03-30T00:06:25.397Z,96135.11
2019-03-30T00:08:55.315Z,96132.69
2019-03-30T00:11:25.231Z,96140.16
2019-03-30T00:13:55.319Z,96144.58
2019-03-30T00:16:25.261Z,96141.09
2019-03-30T00:18:55.158Z,96136.59
2019-03-30T00:21:25.010Z,96139.25
2019-03-30T00:23:54.930Z,96138.98
2019-03-30T00:26:24.874Z,96139.01
2019-03-30T00:28:54.813Z,96135.33
2019-03-30T00:31:24.778Z,96134.55
2019-03-30T00:33:54.762Z,96129.25
2019-03-30T00:36:24.650Z,96124.27
2019-03-30T00:38:54.664Z,96118.18
2019-03-30T00:41:25.097Z,96122.70
2019-03-30T00:43:55.015Z,96122.70
2019-03-30T00:46:25.020Z,96108.27
2019-03-30T00:48:54.923Z,96106.80
2019-03-30T00:51:24.793Z,96106.80
2019-03-30T00:53:54.751Z,96107.34
2019-03-30T00:56:24.686Z,96121.27
2019-03-30T00:58:54.641Z,96121.27
2019-03-30T01:01:24.595Z,96105.69
2019-03-30T01:03:54.493Z,96105.69
2019-03-30T01:06:24.391Z,96110.16
2019-03-30T01:08:54.314Z,96114.19
2019-03-30T01:11:24.220Z,96113.52
2019-03-30T01:13:54.104Z,96109.76
2019-03-30T01:16:24.020Z,96109.76
2019-03-30T01:18:53.931Z,96112.22
2019-03-30T01:21:23.945Z,96112.22
2019-03-30T01:23:53.909Z,96103.00
2019-03-30T01:26:23.825Z,96112.07
2019-03-30T01:28:53.987Z,96116.37
2019-03-30T01:31:24.066Z,96121.73
2019-03-30T01:33:53.963Z,96120.41
2019-03-30T01:36:23.881Z,96121.48
2019-03-30T01:38:53.838Z,96123.63
2019-03-30T01:41:23.761Z,96128.70
2019-03-30T01:43:53.672Z,96127.65
2019-03-30T01:46:23.558Z,96124.98
2019-03-30T01:48:53.448Z,96134.33
2019-03-30T01:51:23.370Z,96129.79
2019-03-30T01:53:53.300Z,96128.41
2019-03-30T01:56:23.190Z,96129.75
2019-03-30T01:58:53.076Z,96134.84
2019-03-30T02:01:23.053Z,96140.71
2019-03-30T02:03:52.962Z,96134.04
2019-03-30T02:06:22.933Z,96135.38
2019-03-30T02:08:53.029Z,96126.83
2019-03-30T02:11:23.066Z,96125.75
2019-03-30T02:13:52.948Z,96122.31
2019-03-30T02:16:23.028Z,96130.31
2019-03-30T02:18:52.942Z,96124.70
2019-03-30T02:21:22.999Z,96118.82
2019-03-30T02:23:52.907Z,96122.81
2019-03-30T02:26:22.853Z,96127.64
2019-03-30T02:28:52.739Z,96122.31
2019-03-30T02:31:22.852Z,96127.13
2019-03-30T02:33:52.778Z,96128.99
2019-03-30T02:36:22.733Z,96128.19
2019-03-30T02:38:52.659Z,96128.22
2019-03-30T02:41:22.593Z,96127.95
2019-03-30T02:43:52.495Z,96127.69
2019-03-30T02:46:22.363Z,96124.48
2019-03-30T02:48:52.250Z,96118.34
2019-03-30T02:51:22.152Z,96119.67
2019-03-30T02:53:52.053Z,96125.56
2019-03-30T02:56:22.067Z,96125.02
2019-03-30T02:58:52.008Z,96129.00
2019-03-30T03:01:21.905Z,96125.24
2019-03-30T03:03:51.920Z,96133.77
2019-03-30T03:06:21.967Z,96129.26
2019-03-30T03:08:51.882Z,96130.57
2019-03-30T03:11:21.806Z,96129.00
2019-03-30T03:13:51.720Z,96129.78
2019-03-30T03:16:21.602Z,96128.42
2019-03-30T03:18:51.508Z,96133.48
2019-03-30T03:21:21.411Z,96137.48
2019-03-30T03:23:51.350Z,96131.87
2019-03-30T03:26:21.247Z,96127.05
2019-03-30T03:28:51.248Z,96128.16
2019-03-30T03:31:21.606Z,96132.40
2019-03-30T03:33:51.494Z,96126.54
2019-03-30T03:36:21.396Z,96122.56
2019-03-30T03:38:51.636Z,96129.49
2019-03-30T03:41:21.588Z,96119.88
2019-03-30T03:43:51.471Z,96123.61
2019-03-30T03:46:21.344Z,96120.95
2019-03-30T03:48:51.248Z,96119.88
2019-03-30T03:51:26.085Z,96131.05
2019-03-30T03:53:55.051Z,96126.27
2019-03-30T03:56:27.788Z,96132.13
2019-03-30T03:58:59.270Z,96131.86
2019-03-30T04:01:30.723Z,96129.23
2019-03-30T04:04:03.052Z,96132.44
2019-03-30T04:06:34.293Z,96138.05
2019-03-30T04:09:06.616Z,96138.58
2019-03-30T04:11:37.918Z,96138.57
2019-03-30T04:14:09.736Z,96151.11
2019-03-30T04:16:39.668Z,96151.36
2019-03-30T04:19:09.602Z,96152.69
2019-03-30T04:21:44.445Z,96159.08
2019-03-30T04:24:11.190Z,96156.38
2019-03-30T04:26:41.068Z,96151.30
2019-03-30T04:29:10.948Z,96163.28
2019-03-30T04:31:40.839Z,96165.19
2019-03-30T04:34:10.742Z,96167.35
2019-03-30T04:36:40.649Z,96169.77
2019-03-30T04:39:10.537Z,96164.45
2019-03-30T04:41:40.448Z,96175.61
2019-03-30T04:44:10.369Z,96168.70
2019-03-30T04:46:40.304Z,96159.96
2019-03-30T04:49:11.877Z,96166.87
2019-03-30T04:51:41.834Z,96161.30
2019-03-30T04:54:11.784Z,96167.95
2019-03-30T04:56:41.712Z,96168.77
2019-03-30T04:59:11.636Z,96173.29
2019-03-30T05:01:41.634Z,96177.83
2019-03-30T05:04:11.588Z,96175.69
2019-03-30T05:06:41.863Z,96169.13
2019-03-30T05:09:14.451Z,96171.25
2019-03-30T05:11:44.334Z,96170.97
2019-03-30T05:14:14.276Z,96181.55
2019-03-30T05:16:44.221Z,96180.84
2019-03-30T05:19:14.129Z,96178.16
2019-03-30T05:21:44.062Z,96181.95
2019-03-30T05:24:13.978Z,96179.64
2019-03-30T05:26:43.925Z,96176.60
2019-03-30T05:29:13.989Z,96175.09
2019-03-30T05:31:44.543Z,96176.64
2019-03-30T05:34:14.520Z,96177.73
2019-03-30T05:36:44.531Z,96166.47
2019-03-30T05:39:14.488Z,96170.65
2019-03-30T05:41:44.416Z,96168.45
2019-03-30T05:44:14.390Z,96165.66
2019-03-30T05:46:44.320Z,96162.45
2019-03-30T05:49:14.524Z,96161.70
2019-03-30T05:51:44.673Z,96163.00
2019-03-30T05:54:14.621Z,96161.75
2019-03-30T05:56:44.733Z,96158.61
2019-03-30T05:59:14.711Z,96160.22
2019-03-30T06:01:44.726Z,96160.28
2019-03-30T06:04:14.885Z,96156.81
2019-03-30T06:06:44.841Z,96159.66
2019-03-30T06:09:14.755Z,96156.96
2019-03-30T06:11:44.654Z,96154.08
2019-03-30T06:14:14.709Z,96148.97
2019-03-30T06:16:44.572Z,96133.86
2019-03-30T06:19:14.733Z,96142.34
2019-03-30T06:21:44.645Z,96138.21
2019-03-30T06:24:14.573Z,96132.67
2019-03-30T06:26:44.521Z,96137.78
2019-03-30T06:29:14.412Z,96143.56
2019-03-30T06:31:46.739Z,96137.41
2019-03-30T06:34:15.941Z,96136.98
2019-03-30T06:36:45.850Z,96131.44
2019-03-30T06:39:16.024Z,96130.56
2019-03-30T06:41:45.926Z,96134.02
2019-03-30T06:44:15.886Z,96135.42
2019-03-30T06:46:45.838Z,96130.77
2019-03-30T06:49:15.737Z,96141.38
2019-03-30T06:51:45.937Z,96146.80
2019-03-30T06:54:16.292Z,96149.66
2019-03-30T06:56:46.307Z,96152.52
2019-03-30T06:59:16.199Z,96140.59
2019-03-30T07:01:46.796Z,96135.77
2019-03-30T07:04:16.943Z,96139.98
2019-03-30T07:06:47.064Z,96142.16
2019-03-30T07:09:19.010Z,96142.16
2019-03-30T07:11:50.757Z,96142.38
2019-03-30T07:14:22.238Z,96137.67
2019-03-30T07:16:55.017Z,96140.81
2019-03-30T07:19:27.896Z,96140.30
2019-03-30T07:21:58.310Z,96143.54
2019-03-30T07:24:28.774Z,96147.86
2019-03-30T07:26:58.657Z,96147.65
2019-03-30T07:29:29.109Z,96150.95
2019-03-30T07:31:59.092Z,96139.88
2019-03-30T07:34:29.028Z,96144.16
2019-03-30T07:36:58.922Z,96141.47
2019-03-30T07:39:28.864Z,96140.51
2019-03-30T07:41:58.792Z,96136.54
2019-03-30T07:44:28.708Z,96134.86
2019-03-30T07:46:58.734Z,96136.00
2019-03-30T07:49:28.679Z,96124.64
2019-03-30T07:51:58.758Z,96131.47
2019-03-30T07:54:28.781Z,96129.48
2019-03-30T07:57:05.536Z,96125.15
2019-03-30T07:59:31.269Z,96122.61
2019-03-30T08:02:01.197Z,96130.51
2019-03-30T08:04:31.313Z,96122.81
2019-03-30T08:07:01.264Z,96132.66
2019-03-30T08:09:31.191Z,96131.05
2019-03-30T08:12:01.344Z,96138.45
2019-03-30T08:14:31.306Z,96124.30
2019-03-30T08:17:01.347Z,96118.85
2019-03-30T08:19:31.300Z,96121.43
2019-03-30T08:22:01.310Z,96128.20
2019-03-30T08:24:31.293Z,96115.72
2019-03-30T08:27:01.250Z,96115.65
2019-03-30T08:29:31.216Z,96119.17
2019-03-30T08:32:01.213Z,96125.13
2019-03-30T08:34:31.271Z,96124.72
2019-03-30T08:37:01.313Z,96132.06
2019-03-30T08:39:31.695Z,96123.35
2019-03-30T08:42:01.618Z,96122.36
2019-03-30T08:44:31.709Z,96115.55
2019-03-30T08:47:01.645Z,96069.08
2019-03-30T08:49:31.623Z,96101.14
2019-03-30T08:52:01.586Z,96103.23
2019-03-30T08:54:31.553Z,96098.32
2019-03-30T08:57:01.503Z,96100.36
2019-03-30T08:59:31.478Z,96100.36
2019-03-30T09:02:01.421Z,96087.16
2019-03-30T09:04:31.438Z,96082.80
2019-03-30T09:07:01.378Z,96089.03
2019-03-30T09:09:31.328Z,96083.34
2019-03-30T09:12:01.286Z,96091.70
2019-03-30T09:14:31.239Z,96082.81
2019-03-30T09:17:01.173Z,96075.39
2019-03-30T09:19:32.888Z,96081.16
2019-03-30T09:22:02.825Z,96064.20
2019-03-30T09:24:32.736Z,96082.45
2019-03-30T09:27:02.683Z,96078.16
2019-03-30T09:29:32.663Z,96070.96
2019-03-30T09:32:13.757Z,96066.17
2019-03-30T09:34:34.769Z,96070.39
2019-03-30T09:37:05.013Z,96065.27
2019-03-30T09:39:34.918Z,96067.05
2019-03-30T09:42:04.955Z,96070.50
2019-03-30T09:44:34.916Z,96063.53
2019-03-30T09:47:05.210Z,96057.33
2019-03-30T09:49:35.122Z,96057.73
2019-03-30T09:52:05.284Z,96052.28
2019-03-30T09:54:35.837Z,96047.38
2019-03-30T09:57:06.785Z,96043.59
2019-03-30T09:59:36.793Z,96045.36
2019-03-30T10:02:06.814Z,96033.80
2019-03-30T10:04:36.814Z,96036.11
2019-03-30T10:07:06.784Z,96037.98
2019-03-30T10:09:36.716Z,96028.27
2019-03-30T10:12:06.707Z,96023.19
2019-03-30T10:15:05.150Z,96023.97
2019-03-30T10:17:35.080Z,96024.86
2019-03-30T10:20:05.509Z,96008.55
2019-03-30T10:22:35.559Z,96014.25
2019-03-30T10:25:05.543Z,96006.84
2019-03-30T10:27:35.491Z,96008.41
2019-03-30T10:30:06.556Z,95988.80
2019-03-30T10:32:37.561Z,95988.80
2019-03-30T10:35:08.571Z,95992.50
2019-03-30T10:37:39.616Z,95988.40
2019-03-30T10:40:10.261Z,95993.95
2019-03-30T10:42:40.329Z,95984.75
2019-03-30T10:45:10.609Z,95985.37
2019-03-30T10:47:40.565Z,95979.29
2019-03-30T10:50:10.805Z,95973.00
2019-03-30T10:52:40.792Z,95970.25
2019-03-30T10:55:10.919Z,95977.67
2019-03-30T10:57:41.673Z,95975.20
2019-03-30T11:00:12.139Z,95976.12
2019-03-30T11:02:42.090Z,95975.61
2019-03-30T11:05:13.266Z,95968.97
2019-03-30T11:07:43.406Z,95967.38
2019-03-30T11:10:13.705Z,95959.69
2019-03-30T11:12:44.261Z,95955.25
2019-03-30T11:15:14.374Z,95943.07
2019-03-30T11:17:44.695Z,95937.00
2019-03-30T11:20:14.641Z,95939.78
2019-03-30T11:22:44.578Z,95934.71
2019-03-30T11:25:14.482Z,95920.39
2019-03-30T11:27:44.419Z,95928.64
2019-03-30T11:30:14.393Z,95917.55
2019-03-30T11:32:44.271Z,95917.29
2019-03-30T11:35:14.192Z,95903.16
2019-03-30T11:37:44.083Z,95903.78
2019-03-30T11:40:14.146Z,95911.47
2019-03-30T11:42:45.131Z,95903.66
2019-03-30T11:45:15.092Z,95903.93
2019-03-30T11:47:45.116Z,95895.08
2019-03-30T11:50:15.034Z,95884.91
2019-03-30T11:52:44.991Z,95890.31
2019-03-30T11:55:21.816Z,95885.16
2019-03-30T11:57:46.999Z,95888.68
2019-03-30T12:00:17.222Z,95887.45
2019-03-30T12:02:47.198Z,95872.91
2019-03-30T12:05:17.155Z,95860.91
2019-03-30T12:07:47.084Z,95867.52
2019-03-30T12:10:17.026Z,95873.17
2019-03-30T12:12:46.938Z,95869.92
2019-03-30T12:15:16.867Z,95869.40
2019-03-30T12:17:46.754Z,95870.87
2019-03-30T12:20:17.176Z,95859.38
2019-03-30T12:22:47.131Z,95860.70
2019-03-30T12:25:17.011Z,95861.13
2019-03-30T12:27:46.911Z,95851.28
2019-03-30T12:30:16.917Z,95849.58
2019-03-30T12:32:46.873Z,95849.97
2019-03-30T12:35:16.871Z,95842.48
2019-03-30T12:37:46.811Z,95834.20
2019-03-30T12:40:17.074Z,95833.25
2019-03-30T12:42:46.970Z,95833.36
2019-03-30T12:45:16.975Z,95832.05
2019-03-30T12:47:46.883Z,95840.49
2019-03-30T12:50:16.796Z,95829.03
2019-03-30T12:52:46.709Z,95811.52
2019-03-30T12:55:19.840Z,95810.34
2019-03-30T12:57:49.789Z,95812.34
2019-03-30T13:00:20.385Z,95817.35
2019-03-30T13:02:50.275Z,95819.82
2019-03-30T13:05:20.244Z,95814.53
2019-03-30T13:07:50.144Z,95815.44
2019-03-30T13:10:20.492Z,95805.34
2019-03-30T13:12:50.423Z,95809.55
2019-03-30T13:15:20.425Z,95813.27
2019-03-30T13:17:50.311Z,95809.19
2019-03-30T13:20:20.254Z,95801.53
2019-03-30T13:22:50.364Z,95800.33
2019-03-30T13:25:20.298Z,95808.39
2019-03-30T13:27:53.261Z,95803.42
2019-03-30T13:30:22.041Z,95801.80
2019-03-30T13:32:53.587Z,95799.06
2019-03-30T13:35:23.557Z,95808.09
2019-03-30T13:37:53.499Z,95804.57
2019-03-30T13:40:23.615Z,95807.54
2019-03-30T13:42:53.553Z,95808.72
2019-03-30T13:45:23.609Z,95809.50
2019-03-30T13:47:53.972Z,95800.99
2019-03-30T13:50:23.891Z,95803.97
2019-03-30T13:52:53.871Z,95795.67
2019-03-30T13:55:23.808Z,95795.38
2019-03-30T13:57:53.715Z,95788.01
2019-03-30T14:00:23.618Z,95789.37
2019-03-30T14:02:53.562Z,95787.47
2019-03-30T14:05:23.563Z,95784.13
2019-03-30T14:07:53.424Z,95779.37
2019-03-30T14:10:23.354Z,95795.93
2019-03-30T14:12:53.231Z,95790.50
2019-03-30T14:15:23.164Z,95786.13
2019-03-30T14:17:53.067Z,95788.77
2019-03-30T14:20:23.087Z,95791.23
2019-03-30T14:22:53.068Z,95786.31
2019-03-30T14:25:23.105Z,95787.75
2019-03-30T14:27:53.093Z,95780.36
2019-03-30T14:30:23.089Z,95780.96
2019-03-30T14:32:53.059Z,95788.38
2019-03-30T14:35:24.556Z,95782.39
2019-03-30T14:37:54.556Z,95786.23
2019-03-30T14:40:24.825Z,95783.36
2019-03-30T14:42:54.815Z,95786.89
2019-03-30T14:45:24.761Z,95763.41
2019-03-30T14:47:57.742Z,95795.79
2019-03-30T14:50:28.789Z,95797.39
2019-03-30T14:53:00.401Z,95790.56
2019-03-30T14:55:30.824Z,95785.61
2019-03-30T14:58:00.801Z,95792.22
2019-03-30T15:00:31.641Z,95791.09
2019-03-30T15:03:02.286Z,95787.11
2019-03-30T15:05:34.716Z,95789.52
2019-03-30T15:08:06.327Z,95778.09
2019-03-30T15:10:36.799Z,95786.56
2019-03-30T15:13:07.954Z,95785.55
2019-03-30T15:15:38.385Z,95786.58
2019-03-30T15:18:11.028Z,95782.59
2019-03-30T15:20:40.954Z,95789.96
2019-03-30T15:23:11.029Z,95788.70
2019-03-30T15:25:43.675Z,95792.45
2019-03-30T15:28:13.622Z,95792.01
2019-03-30T15:30:43.538Z,95789.08
2019-03-30T15:33:14.764Z,95788.40
2019-03-30T15:35:44.749Z,95793.37
2019-03-30T15:38:14.723Z,95786.60
2019-03-30T15:40:44.690Z,95789.77
2019-03-30T15:43:14.649Z,95780.52
2019-03-30T15:45:44.975Z,95786.39
2019-03-30T15:48:16.563Z,95778.70
2019-03-30T15:50:46.979Z,95789.45
2019-03-30T15:53:17.579Z,95783.22
2019-03-30T15:55:48.990Z,95785.50
2019-03-30T15:58:20.012Z,95789.09
2019-03-30T16:00:50.373Z,95778.71
2019-03-30T16:03:20.568Z,95788.84
2019-03-30T16:05:50.825Z,95791.34
2019-03-30T16:08:20.774Z,95783.22
2019-03-30T16:10:52.467Z,95787.28
2019-03-30T16:13:22.621Z,95782.61
2019-03-30T16:15:52.967Z,95789.48
2019-03-30T16:18:22.959Z,95799.07
2019-03-30T16:20:53.420Z,95794.91
2019-03-30T16:23:23.449Z,95803.52
2019-03-30T16:25:53.479Z,95802.95
2019-03-30T16:28:24.914Z,95803.97
2019-03-30T16:30:55.763Z,95806.53
2019-03-30T16:33:26.589Z,95809.74
2019-03-30T16:35:57.288Z,95808.37
2019-03-30T16:38:27.948Z,95813.19
2019-03-30T16:41:00.530Z,95816.55
2019-03-30T16:43:32.201Z,95817.88
2019-03-30T16:46:02.921Z,95818.47
2019-03-30T16:48:32.883Z,95824.34
2019-03-30T16:51:02.801Z,95821.77
2019-03-30T16:53:32.725Z,95823.52
2019-03-30T16:56:03.295Z,95818.40
2019-03-30T16:58:34.157Z,95820.38
2019-03-30T17:01:04.087Z,95818.20
2019-03-30T17:03:34.053Z,95817.19
2019-03-30T17:06:04.024Z,95825.70
2019-03-30T17:08:34.007Z,95824.87
2019-03-30T17:11:04.045Z,95816.42
2019-03-30T17:13:34.205Z,95821.00
2019-03-30T17:16:04.160Z,95820.08
2019-03-30T17:18:34.130Z,95818.66
2019-03-30T17:21:04.121Z,95814.48
2019-03-30T17:23:34.029Z,95823.61
2019-03-30T17:26:04.053Z,95822.08
2019-03-30T17:28:34.016Z,95808.34
2019-03-30T17:31:04.078Z,95816.44
2019-03-30T17:33:34.040Z,95818.39
2019-03-30T17:36:04.152Z,95826.20
2019-03-30T17:38:34.074Z,95822.24
2019-03-30T17:41:04.088Z,95825.20
2019-03-30T17:43:34.067Z,95834.74
2019-03-30T17:46:04.134Z,95838.28
2019-03-30T17:48:34.078Z,95835.28
2019-03-30T17:51:05.335Z,95832.11
2019-03-30T17:53:39.220Z,95835.83
2019-03-30T17:56:07.574Z,95834.34
2019-03-30T17:58:38.113Z,95836.42
2019-03-30T18:01:08.054Z,95832.36
2019-03-30T18:03:38.114Z,95841.90
2019-03-30T18:06:09.387Z,95839.84
2019-03-30T18:08:39.779Z,95839.34
2019-03-30T18:11:10.078Z,95846.35
2019-03-30T18:13:40.059Z,95833.05
2019-03-30T18:16:10.646Z,95838.17
2019-03-30T18:18:41.586Z,95839.05
2019-03-30T18:21:13.652Z,95840.18
2019-03-30T18:23:47.398Z,95835.79
2019-03-30T18:26:17.111Z,95838.33
2019-03-30T18:28:47.050Z,95831.58
2019-03-30T18:31:17.468Z,95835.49
2019-03-30T18:33:47.610Z,95837.13
2019-03-30T18:36:18.843Z,95834.27
2019-03-30T18:38:49.810Z,95836.33
2019-03-30T18:41:19.970Z,95843.88
2019-03-30T18:43:50.901Z,95843.44
2019-03-30T18:46:20.827Z,95850.81
2019-03-30T18:48:51.027Z,95846.87
2019-03-30T18:51:21.562Z,95847.11
2019-03-30T18:53:52.195Z,95848.14
2019-03-30T18:56:22.228Z,95846.87
2019-03-30T18:58:52.209Z,95849.72
2019-03-30T19:01:22.153Z,95858.14
2019-03-30T19:03:52.335Z,95851.53
2019-03-30T19:06:22.419Z,95854.42
2019-03-30T19:08:52.394Z,95857.18
2019-03-30T19:11:22.372Z,95857.64
2019-03-30T19:13:52.294Z,95856.95
2019-03-30T19:16:22.368Z,95848.14
2019-03-30T19:18:52.305Z,95852.02
2019-03-30T19:21:22.265Z,95856.36
2019-03-30T19:23:52.215Z,95850.64
2019-03-30T19:26:22.125Z,95849.77
2019-03-30T19:28:56.574Z,95854.61
2019-03-30T19:31:24.084Z,95850.42
2019-03-30T19:33:54.610Z,95858.83
2019-03-30T19:36:24.595Z,95859.67
2019-03-30T19:38:54.494Z,95858.36
2019-03-30T19:41:24.446Z,95856.97
2019-03-30T19:43:54.389Z,95861.69
2019-03-30T19:46:26.680Z,95862.00
2019-03-30T19:48:55.968Z,95877.17
2019-03-30T19:51:25.992Z,95867.88
2019-03-30T19:53:59.690Z,95872.31
2019-03-30T19:56:27.738Z,95879.41
2019-03-30T19:59:10.157Z,95872.19
2019-03-30T20:01:29.322Z,95869.70
2019-03-30T20:03:59.285Z,95869.41
2019-03-30T20:06:29.200Z,95874.29
2019-03-30T20:08:59.215Z,95864.38
2019-03-30T20:11:29.157Z,95860.98
2019-03-30T20:13:59.083Z,95867.12
2019-03-30T20:16:30.049Z,95864.43
2019-03-30T20:19:11.552Z,95866.77
2019-03-30T20:21:31.629Z,95862.28
2019-03-30T20:24:01.578Z,95865.96
2019-03-30T20:26:31.488Z,95856.67
2019-03-30T20:29:01.428Z,95855.34
2019-03-30T20:31:31.344Z,95847.73
2019-03-30T20:34:01.232Z,95851.42
2019-03-30T20:36:31.171Z,95851.14
2019-03-30T20:39:01.119Z,95855.20
2019-03-30T20:41:31.082Z,95859.89
2019-03-30T20:44:00.995Z,95852.61
2019-03-30T20:46:30.901Z,95856.04
2019-03-30T20:49:00.794Z,95851.45
2019-03-30T20:51:30.695Z,95850.75
2019-03-30T20:54:00.639Z,95858.63
2019-03-30T20:56:30.574Z,95847.97
2019-03-30T20:59:01.036Z,95846.72
2019-03-30T21:01:30.922Z,95848.31
2019-03-30T21:04:00.849Z,95843.55
2019-03-30T21:06:30.778Z,95848.93
2019-03-30T21:09:00.725Z,95843.02
2019-03-30T21:11:30.659Z,95845.14
2019-03-30T21:14:00.608Z,95838.52
2019-03-30T21:16:31.776Z,95841.88
2019-03-30T21:19:01.755Z,95840.98
2019-03-30T21:21:31.793Z,95849.59
2019-03-30T21:24:01.712Z,95846.98
2019-03-30T21:26:31.641Z,95855.13
2019-03-30T21:29:01.577Z,95849.14
2019-03-30T21:31:31.581Z,95843.62
2019-03-30T21:34:01.453Z,95843.26
2019-03-30T21:36:31.364Z,95844.92
2019-03-30T21:39:01.277Z,95836.37
2019-03-30T21:41:31.227Z,95839.55
2019-03-30T21:44:01.163Z,95837.02
2019-03-30T21:46:31.200Z,95830.42
2019-03-30T21:49:01.114Z,95835.31
2019-03-30T21:51:31.024Z,95841.52
2019-03-30T21:54:01.121Z,95838.83
2019-03-30T21:56:31.323Z,95837.42
2019-03-30T21:59:01.285Z,95836.62
2019-03-30T22:01:31.300Z,95835.40
2019-03-30T22:04:01.207Z,95840.13
2019-03-30T22:06:31.113Z,95837.44
2019-03-30T22:09:01.517Z,95833.49
2019-03-30T22:11:31.431Z,95836.15
2019-03-30T22:14:01.788Z,95832.35
2019-03-30T22:16:31.674Z,95832.53
2019-03-30T22:19:01.639Z,95830.03
2019-03-30T22:21:31.543Z,95823.23
2019-03-30T22:24:01.529Z,95829.73
2019-03-30T22:26:31.453Z,95825.63
2019-03-30T22:29:01.423Z,95823.34
2019-03-30T22:31:31.351Z,95812.84
2019-03-30T22:34:01.270Z,95812.70
2019-03-30T22:36:31.177Z,95817.90
2019-03-30T22:39:01.084Z,95816.46
2019-03-30T22:41:31.006Z,95817.73
2019-03-30T22:44:00.933Z,95814.02
2019-03-30T22:46:30.920Z,95815.08
2019-03-30T22:49:00.864Z,95815.08
2019-03-30T22:51:30.894Z,95816.66
2019-03-30T22:54:00.852Z,95817.55
2019-03-30T22:56:30.733Z,95814.91
2019-03-30T22:59:00.673Z,95807.03
2019-03-30T23:01:30.710Z,95816.42
2019-03-30T23:04:00.730Z,95812.05
2019-03-30T23:06:30.664Z,95807.36
2019-03-30T23:09:00.887Z,95811.24
2019-03-30T23:11:30.773Z,95799.57
2019-03-30T23:14:00.668Z,95799.83
2019-03-30T23:16:30.558Z,95778.11
2019-03-30T23:19:00.510Z,95789.23
2019-03-30T23:21:30.374Z,95801.80
2019-03-30T23:24:00.286Z,95788.80
2019-03-30T23:26:30.630Z,95786.30
2019-03-30T23:29:00.551Z,95783.62
2019-03-30T23:31:30.463Z,95780.34
2019-03-30T23:34:00.535Z,95774.28
2019-03-30T23:36:30.513Z,95776.23
2019-03-30T23:39:00.379Z,95789.92
2019-03-30T23:41:30.517Z,95769.94
2019-03-30T23:44:00.431Z,95778.66
2019-03-30T23:46:30.342Z,95777.62
2019-03-30T23:49:00.268Z,95774.63
2019-03-30T23:51:30.674Z,95768.46
2019-03-30T23:54:00.554Z,95768.46
2019-03-30T23:56:30.505Z,95765.61
2019-03-30T23:59:00.350Z,95768.64
